sensor_id;sensor_type;location;lat;lon;timestamp;pressure;altitude;pressure_sealevel;temperature;humidity
40650;BME280;26342;42.826;23.992;2022-10-13T00:00:33;96135.72;;;10.74;100.00
40650;BME280;26342;42.826;23.992;2022-10-13T00:03:00;96136.78;;;10.73;100.00
40650;BME280;26342;42.826;23.992;2022-10-13T00:05:26;96126.81;;;10.69;100.00
40650;BME280;26342;42.826;23.992;2022-10-13T00:07:52;96128.34;;;10.65;100.00
40650;BME280;26342;42.826;23.992;2022-10-13T00:10:17;96132.16;;;10.69;100.00
40650;BME280;26342;42.826;23.992;2022-10-13T00:12:42;96130.88;;;10.71;100.00
40650;BME280;26342;42.826;23.992;2022-10-13T00:15:09;96137.25;;;10.70;100.00
40650;BME280;26342;42.826;23.992;2022-10-13T00:17:34;96134.59;;;10.70;100.00
40650;BME280;26342;42.826;23.992;2022-10-13T00:20:05;96131.50;;;10.61;100.00
40650;BME280;26342;42.826;23.992;2022-10-13T00:22:31;96136.81;;;10.61;100.00
40650;BME280;26342;42.826;23.992;2022-10-13T00:24:57;96134.53;;;10.53;100.00
40650;BME280;26342;42.826;23.992;2022-10-13T00:27:22;96129.19;;;10.53;100.00
40650;BME280;26342;42.826;23.992;2022-10-13T00:29:48;96125.63;;;10.48;100.00
40650;BME280;26342;42.826;23.992;2022-10-13T00:32:13;96122.03;;;10.42;100.00
40650;BME280;26342;42.826;23.992;2022-10-13T00:34:39;96119.03;;;10.39;100.00
40650;BME280;26342;42.826;23.992;2022-10-13T00:37:04;96115.81;;;10.37;100.00
40650;BME280;26342;42.826;23.992;2022-10-13T00:39:30;96112.78;;;10.33;100.00
40650;BME280;26342;42.826;23.992;2022-10-13T00:41:59;96118.13;;;10.33;100.00
40650;BME280;26342;42.826;23.992;2022-10-13T00:47:42;96103.41;;;10.19;100.00
40650;BME280;26342;42.826;23.992;2022-10-13T00:50:36;96111.88;;;10.16;100.00
40650;BME280;26342;42.826;23.992;2022-10-13T00:53:03;96101.34;;;10.09;100.00
40650;BME280;26342;42.826;23.992;2022-10-13T00:55:31;96104.72;;;10.04;100.00
40650;BME280;26342;42.826;23.992;2022-10-13T00:57:59;96098.34;;;10.05;100.00
40650;BME280;26342;42.826;23.992;2022-10-13T01:00:27;96099.84;;;10.01;100.00
40650;BME280;26342;42.826;23.992;2022-10-13T01:02:53;96099.28;;;9.99;100.00
40650;BME280;26342;42.826;23.992;2022-10-13T01:05:19;96106.13;;;9.95;100.00
40650;BME280;26342;42.826;23.992;2022-10-13T01:07:47;96103.94;;;9.92;100.00
40650;BME280;26342;42.826;23.992;2022-10-13T01:10:16;96102.06;;;9.93;100.00
40650;BME280;26342;42.826;23.992;2022-10-13T01:13:00;96105.53;;;9.93;100.00
40650;BME280;26342;42.826;23.992;2022-10-13T01:15:35;96084.13;;;9.76;100.00
40650;BME280;26342;42.826;23.992;2022-10-13T01:32:27;96088.16;;;9.79;100.00
40650;BME280;26342;42.826;23.992;2022-10-13T01:35:02;96091.00;;;9.72;100.00
40650;BME280;26342;42.826;23.992;2022-10-13T01:37:42;96081.59;;;9.70;100.00
40650;BME280;26342;42.826;23.992;2022-10-13T01:40:25;96086.81;;;9.65;100.00
40650;BME280;26342;42.826;23.992;2022-10-13T01:43:03;96082.19;;;9.60;100.00
40650;BME280;26342;42.826;23.992;2022-10-13T01:45:36;96086.38;;;9.56;100.00
40650;BME280;26342;42.826;23.992;2022-10-13T01:48:04;96077.53;;;9.56;100.00
40650;BME280;26342;42.826;23.992;2022-10-13T01:50:33;96071.63;;;9.54;100.00
40650;BME280;26342;42.826;23.992;2022-10-13T01:53:02;96078.00;;;9.52;100.00
40650;BME280;26342;42.826;23.992;2022-10-13T01:55:28;96072.22;;;9.56;100.00
40650;BME280;26342;42.826;23.992;2022-10-13T01:57:54;96065.50;;;9.53;100.00
40650;BME280;26342;42.826;23.992;2022-10-13T02:00:20;96069.22;;;9.52;100.00
40650;BME280;26342;42.826;23.992;2022-10-13T02:08:52;96063.44;;;9.43;100.00
40650;BME280;26342;42.826;23.992;2022-10-13T02:11:14;96064.34;;;9.37;100.00
40650;BME280;26342;42.826;23.992;2022-10-13T02:13:53;96062.84;;;9.30;100.00
40650;BME280;26342;42.826;23.992;2022-10-13T02:16:22;96056.94;;;9.28;100.00
40650;BME280;26342;42.826;23.992;2022-10-13T02:18:49;96054.84;;;9.30;100.00
40650;BME280;26342;42.826;23.992;2022-10-13T02:21:16;96063.88;;;9.29;100.00
40650;BME280;26342;42.826;23.992;2022-10-13T02:23:42;96057.75;;;9.28;100.00
40650;BME280;26342;42.826;23.992;2022-10-13T02:26:08;96058.00;;;9.27;100.00
40650;BME280;26342;42.826;23.992;2022-10-13T02:28:36;96054.50;;;9.26;100.00
40650;BME280;26342;42.826;23.992;2022-10-13T02:31:03;96057.41;;;9.25;100.00
40650;BME280;26342;42.826;23.992;2022-10-13T02:33:29;96051.50;;;9.22;100.00
40650;BME280;26342;42.826;23.992;2022-10-13T02:35:54;96047.22;;;9.21;100.00
40650;BME280;26342;42.826;23.992;2022-10-13T02:38:20;96041.06;;;9.21;100.00
40650;BME280;26342;42.826;23.992;2022-10-13T02:40:45;96044.22;;;9.18;100.00
40650;BME280;26342;42.826;23.992;2022-10-13T02:43:11;96038.88;;;9.18;100.00
40650;BME280;26342;42.826;23.992;2022-10-13T02:45:36;96037.47;;;9.15;100.00
40650;BME280;26342;42.826;23.992;2022-10-13T02:48:02;96031.69;;;9.07;100.00
40650;BME280;26342;42.826;23.992;2022-10-13T02:50:27;96048.72;;;9.17;100.00
40650;BME280;26342;42.826;23.992;2022-10-13T02:52:53;96046.97;;;9.11;100.00
40650;BME280;26342;42.826;23.992;2022-10-13T02:55:18;96031.34;;;9.03;100.00
40650;BME280;26342;42.826;23.992;2022-10-13T02:57:44;96037.47;;;9.04;100.00
40650;BME280;26342;42.826;23.992;2022-10-13T03:00:10;96036.09;;;9.01;100.00
40650;BME280;26342;42.826;23.992;2022-10-13T03:02:36;96031.78;;;9.00;100.00
40650;BME280;26342;42.826;23.992;2022-10-13T03:05:01;96026.38;;;8.95;100.00
40650;BME280;26342;42.826;23.992;2022-10-13T03:07:27;96032.03;;;8.99;100.00
40650;BME280;26342;42.826;23.992;2022-10-13T03:09:52;96027.50;;;8.99;100.00
40650;BME280;26342;42.826;23.992;2022-10-13T03:12:17;96029.38;;;8.99;100.00
40650;BME280;26342;42.826;23.992;2022-10-13T03:14:43;96021.97;;;9.01;100.00
40650;BME280;26342;42.826;23.992;2022-10-13T03:17:08;96021.97;;;9.01;100.00
40650;BME280;26342;42.826;23.992;2022-10-13T03:19:34;96025.31;;;8.96;100.00
40650;BME280;26342;42.826;23.992;2022-10-13T03:21:59;96026.38;;;8.95;100.00
40650;BME280;26342;42.826;23.992;2022-10-13T03:24:24;96022.53;;;8.91;100.00
40650;BME280;26342;42.826;23.992;2022-10-13T03:26:50;96025.66;;;8.88;100.00
40650;BME280;26342;42.826;23.992;2022-10-13T03:29:16;96023.47;;;8.85;100.00
40650;BME280;26342;42.826;23.992;2022-10-13T03:31:43;96025.28;;;8.84;100.00
40650;BME280;26342;42.826;23.992;2022-10-13T03:34:10;96030.84;;;8.83;100.00
40650;BME280;26342;42.826;23.992;2022-10-13T03:36:36;96021.72;;;8.79;100.00
40650;BME280;26342;42.826;23.992;2022-10-13T03:39:01;96029.69;;;8.79;100.00
40650;BME280;26342;42.826;23.992;2022-10-13T03:41:27;96028.28;;;8.76;100.00
40650;BME280;26342;42.826;23.992;2022-10-13T03:43:52;96027.47;;;8.76;100.00
40650;BME280;26342;42.826;23.992;2022-10-13T03:46:18;96029.81;;;8.72;100.00
40650;BME280;26342;42.826;23.992;2022-10-13T03:48:45;96028.41;;;8.70;100.00
40650;BME280;26342;42.826;23.992;2022-10-13T03:51:14;96022.28;;;8.69;100.00
40650;BME280;26342;42.826;23.992;2022-10-13T03:53:41;96029.09;;;8.65;100.00
40650;BME280;26342;42.826;23.992;2022-10-13T03:56:06;96025.16;;;8.67;100.00
40650;BME280;26342;42.826;23.992;2022-10-13T03:58:32;96026.19;;;8.66;100.00
40650;BME280;26342;42.826;23.992;2022-10-13T04:01:02;96027.72;;;8.62;100.00
40650;BME280;26342;42.826;23.992;2022-10-13T04:03:28;96022.59;;;8.61;100.00
40650;BME280;26342;42.826;23.992;2022-10-13T04:05:54;96028.16;;;8.59;100.00
40650;BME280;26342;42.826;23.992;2022-10-13T04:08:19;96023.44;;;8.61;100.00
40650;BME280;26342;42.826;23.992;2022-10-13T04:10:44;96029.56;;;8.62;100.00
40650;BME280;26342;42.826;23.992;2022-10-13T04:13:10;96031.03;;;8.58;100.00
40650;BME280;26342;42.826;23.992;2022-10-13T04:15:39;96026.53;;;8.58;100.00
40650;BME280;26342;42.826;23.992;2022-10-13T04:18:05;96032.91;;;8.57;100.00
40650;BME280;26342;42.826;23.992;2022-10-13T04:20:35;96025.94;;;8.56;100.00
40650;BME280;26342;42.826;23.992;2022-10-13T04:23:01;96033.34;;;8.54;100.00
40650;BME280;26342;42.826;23.992;2022-10-13T04:25:26;96028.03;;;8.54;100.00
40650;BME280;26342;42.826;23.992;2022-10-13T04:27:52;96024.19;;;8.50;100.00
40650;BME280;26342;42.826;23.992;2022-10-13T04:30:17;96018.97;;;8.44;100.00
40650;BME280;26342;42.826;23.992;2022-10-13T04:32:42;96020.59;;;8.45;100.00
40650;BME280;26342;42.826;23.992;2022-10-13T04:35:08;96026.50;;;8.47;100.00
40650;BME280;26342;42.826;23.992;2022-10-13T04:37:33;96021.19;;;8.47;100.00
40650;BME280;26342;42.826;23.992;2022-10-13T04:39:59;96020.59;;;8.45;100.00
40650;BME280;26342;42.826;23.992;2022-10-13T04:42:24;96020.25;;;8.41;100.00
40650;BME280;26342;42.826;23.992;2022-10-13T04:44:49;96021.63;;;8.44;100.00
40650;BME280;26342;42.826;23.992;2022-10-13T04:47:15;96026.38;;;8.42;100.00
40650;BME280;26342;42.826;23.992;2022-10-13T04:49:40;96020.72;;;8.38;100.00
40650;BME280;26342;42.826;23.992;2022-10-13T04:52:06;96025.78;;;8.39;100.00
40650;BME280;26342;42.826;23.992;2022-10-13T04:54:31;96022.09;;;8.41;100.00
40650;BME280;26342;42.826;23.992;2022-10-13T04:56:57;96022.66;;;8.43;100.00
40650;BME280;26342;42.826;23.992;2022-10-13T04:59:23;96028.22;;;8.41;100.00
40650;BME280;26342;42.826;23.992;2022-10-13T05:01:49;96023.72;;;8.42;100.00
40650;BME280;26342;42.826;23.992;2022-10-13T05:04:14;96028.69;;;8.38;100.00
40650;BME280;26342;42.826;23.992;2022-10-13T05:06:41;96026.38;;;8.42;100.00
40650;BME280;26342;42.826;23.992;2022-10-13T05:09:09;96033.31;;;8.43;100.00
40650;BME280;26342;42.826;23.992;2022-10-13T05:11:38;96029.59;;;8.44;100.00
40650;BME280;26342;42.826;23.992;2022-10-13T05:14:03;96030.66;;;8.43;100.00
40650;BME280;26342;42.826;23.992;2022-10-13T05:16:28;96034.94;;;8.44;100.00
40650;BME280;26342;42.826;23.992;2022-10-13T05:18:55;96040.72;;;8.52;100.00
40650;BME280;26342;42.826;23.992;2022-10-13T05:21:23;96036.59;;;8.56;100.00
40650;BME280;26342;42.826;23.992;2022-10-13T05:23:49;96044.19;;;8.53;100.00
40650;BME280;26342;42.826;23.992;2022-10-13T05:26:18;96045.03;;;8.53;100.00
40650;BME280;26342;42.826;23.992;2022-10-13T05:28:44;96037.72;;;8.49;100.00
40650;BME280;26342;42.826;23.992;2022-10-13T05:33:37;96041.44;;;8.48;100.00
40650;BME280;26342;42.826;23.992;2022-10-13T05:36:07;96034.75;;;8.57;100.00
40650;BME280;26342;42.826;23.992;2022-10-13T05:38:33;96024.78;;;8.52;100.00
40650;BME280;26342;42.826;23.992;2022-10-13T05:41:03;96045.63;;;8.67;100.00
40650;BME280;26342;42.826;23.992;2022-10-13T05:43:30;96046.00;;;8.71;100.00
40650;BME280;26342;42.826;23.992;2022-10-13T05:45:55;96047.28;;;8.80;100.00
40650;BME280;26342;42.826;23.992;2022-10-13T05:48:21;96051.81;;;8.91;100.00
40650;BME280;26342;42.826;23.992;2022-10-13T05:50:46;96050.22;;;9.02;100.00
40650;BME280;26342;42.826;23.992;2022-10-13T05:53:11;96056.59;;;9.12;100.00
40650;BME280;26342;42.826;23.992;2022-10-13T05:55:37;96062.03;;;9.17;100.00
40650;BME280;26342;42.826;23.992;2022-10-13T05:58:03;96058.66;;;9.22;100.00
40650;BME280;26342;42.826;23.992;2022-10-13T06:00:28;96065.97;;;9.27;100.00
40650;BME280;26342;42.826;23.992;2022-10-13T06:03:09;96065.63;;;9.35;100.00
40650;BME280;26342;42.826;23.992;2022-10-13T06:05:36;96064.34;;;9.37;100.00
40650;BME280;26342;42.826;23.992;2022-10-13T06:08:02;96061.44;;;9.39;100.00
40650;BME280;26342;42.826;23.992;2022-10-13T06:10:27;96056.34;;;9.37;100.00
40650;BME280;26342;42.826;23.992;2022-10-13T06:12:53;96054.16;;;9.46;100.00
40650;BME280;26342;42.826;23.992;2022-10-13T06:15:18;96062.59;;;9.55;100.00
40650;BME280;26342;42.826;23.992;2022-10-13T06:17:44;96058.06;;;9.55;100.00
40650;BME280;26342;42.826;23.992;2022-10-13T06:20:10;96068.38;;;9.63;100.00
40650;BME280;26342;42.826;23.992;2022-10-13T06:22:36;96063.97;;;9.69;100.00
40650;BME280;26342;42.826;23.992;2022-10-13T06:25:03;96054.47;;;9.73;100.00
40650;BME280;26342;42.826;23.992;2022-10-13T06:27:30;96071.97;;;9.81;100.00
40650;BME280;26342;42.826;23.992;2022-10-13T06:29:55;96063.81;;;9.87;100.00
40650;BME280;26342;42.826;23.992;2022-10-13T06:32:21;96073.47;;;9.88;100.00
40650;BME280;26342;42.826;23.992;2022-10-13T06:34:46;96060.69;;;9.90;100.00
40650;BME280;26342;42.826;23.992;2022-10-13T06:37:11;96060.81;;;9.95;100.00
40650;BME280;26342;42.826;23.992;2022-10-13T06:39:37;96064.94;;;10.03;100.00
40650;BME280;26342;42.826;23.992;2022-10-13T06:42:03;96063.56;;;10.12;100.00
40650;BME280;26342;42.826;23.992;2022-10-13T06:44:30;96060.41;;;10.15;100.00
40650;BME280;26342;42.826;23.992;2022-10-13T06:46:56;96063.53;;;10.24;100.00
40650;BME280;26342;42.826;23.992;2022-10-13T06:49:22;96063.72;;;10.34;100.00
40650;BME280;26342;42.826;23.992;2022-10-13T06:51:48;96065.69;;;10.39;100.00
40650;BME280;26342;42.826;23.992;2022-10-13T06:54:14;96061.72;;;10.41;100.00
40650;BME280;26342;42.826;23.992;2022-10-13T06:56:39;96056.63;;;10.40;100.00
40650;BME280;26342;42.826;23.992;2022-10-13T06:59:05;96053.13;;;10.51;100.00
40650;BME280;26342;42.826;23.992;2022-10-13T07:01:30;96063.56;;;10.69;100.00
40650;BME280;26342;42.826;23.992;2022-10-13T07:03:55;96056.63;;;10.85;100.00
40650;BME280;26342;42.826;23.992;2022-10-13T07:06:21;96041.91;;;10.82;100.00
40650;BME280;26342;42.826;23.992;2022-10-13T07:08:46;96061.81;;;11.08;100.00
40650;BME280;26342;42.826;23.992;2022-10-13T07:11:13;96056.88;;;11.17;100.00
40650;BME280;26342;42.826;23.992;2022-10-13T07:13:39;96045.63;;;11.32;100.00
40650;BME280;26342;42.826;23.992;2022-10-13T07:16:06;96052.72;;;11.43;100.00
40650;BME280;26342;42.826;23.992;2022-10-13T07:18:32;96041.97;;;11.55;100.00
40650;BME280;26342;42.826;23.992;2022-10-13T07:20:58;96043.78;;;11.71;100.00
40650;BME280;26342;42.826;23.992;2022-10-13T07:23:24;96040.91;;;11.94;100.00
40650;BME280;26342;42.826;23.992;2022-10-13T07:25:49;96038.41;;;12.10;100.00
40650;BME280;26342;42.826;23.992;2022-10-13T07:28:15;96031.13;;;12.27;100.00
40650;BME280;26342;42.826;23.992;2022-10-13T07:30:40;96034.97;;;12.36;100.00
40650;BME280;26342;42.826;23.992;2022-10-13T07:33:06;96028.41;;;12.49;100.00
40650;BME280;26342;42.826;23.992;2022-10-13T07:35:32;96027.16;;;12.56;100.00
40650;BME280;26342;42.826;23.992;2022-10-13T07:37:57;96025.31;;;12.62;100.00
40650;BME280;26342;42.826;23.992;2022-10-13T07:40:23;96031.59;;;12.78;100.00
40650;BME280;26342;42.826;23.992;2022-10-13T07:42:48;96025.50;;;12.82;100.00
40650;BME280;26342;42.826;23.992;2022-10-13T07:45:14;96026.94;;;12.95;100.00
40650;BME280;26342;42.826;23.992;2022-10-13T07:47:39;96017.53;;;13.20;100.00
40650;BME280;26342;42.826;23.992;2022-10-13T07:50:06;96024.38;;;13.43;100.00
40650;BME280;26342;42.826;23.992;2022-10-13T07:52:34;96031.16;;;13.55;100.00
40650;BME280;26342;42.826;23.992;2022-10-13T07:54:59;96018.34;;;13.62;100.00
40650;BME280;26342;42.826;23.992;2022-10-13T07:57:25;96016.75;;;13.72;100.00
40650;BME280;26342;42.826;23.992;2022-10-13T07:59:52;96021.16;;;13.93;100.00
40650;BME280;26342;42.826;23.992;2022-10-13T08:02:17;96023.66;;;14.10;100.00
40650;BME280;26342;42.826;23.992;2022-10-13T08:04:42;96022.09;;;14.24;100.00
40650;BME280;26342;42.826;23.992;2022-10-13T08:07:08;96022.41;;;14.38;100.00
40650;BME280;26342;42.826;23.992;2022-10-13T08:09:33;96025.16;;;14.58;100.00
40650;BME280;26342;42.826;23.992;2022-10-13T08:11:59;96019.03;;;14.78;100.00
40650;BME280;26342;42.826;23.992;2022-10-13T08:14:25;96013.13;;;14.86;100.00
40650;BME280;26342;42.826;23.992;2022-10-13T08:16:50;96018.75;;;15.15;100.00
40650;BME280;26342;42.826;23.992;2022-10-13T08:19:16;96020.31;;;15.47;100.00
40650;BME280;26342;42.826;23.992;2022-10-13T08:21:42;96023.56;;;15.64;100.00
40650;BME280;26342;42.826;23.992;2022-10-13T08:24:10;96021.91;;;15.83;100.00
40650;BME280;26342;42.826;23.992;2022-10-13T08:26:37;96014.81;;;16.08;100.00
40650;BME280;26342;42.826;23.992;2022-10-13T08:29:02;96020.91;;;16.29;100.00
40650;BME280;26342;42.826;23.992;2022-10-13T08:31:28;96029.16;;;16.47;100.00
40650;BME280;26342;42.826;23.992;2022-10-13T08:33:53;96019.38;;;16.67;100.00
40650;BME280;26342;42.826;23.992;2022-10-13T08:36:18;96017.16;;;16.79;100.00
40650;BME280;26342;42.826;23.992;2022-10-13T08:38:45;96015.34;;;17.03;100.00
40650;BME280;26342;42.826;23.992;2022-10-13T08:41:23;96014.22;;;17.10;100.00
40650;BME280;26342;42.826;23.992;2022-10-13T08:43:52;96012.63;;;17.09;100.00
40650;BME280;26342;42.826;23.992;2022-10-13T08:46:22;95999.31;;;17.22;100.00
40650;BME280;26342;42.826;23.992;2022-10-13T08:48:49;96005.16;;;17.29;100.00
40650;BME280;26342;42.826;23.992;2022-10-13T08:51:15;95991.63;;;17.35;100.00
40650;BME280;26342;42.826;23.992;2022-10-13T08:53:43;95990.88;;;17.53;100.00
40650;BME280;26342;42.826;23.992;2022-10-13T08:58:43;95988.06;;;17.92;92.15
40650;BME280;26342;42.826;23.992;2022-10-13T09:03:44;96003.78;;;18.33;91.74
40650;BME280;26342;42.826;23.992;2022-10-13T09:06:16;96000.78;;;18.34;84.51
40650;BME280;26342;42.826;23.992;2022-10-13T09:08:56;95999.03;;;18.62;89.03
40650;BME280;26342;42.826;23.992;2022-10-13T09:11:25;95977.94;;;18.83;87.13
40650;BME280;26342;42.826;23.992;2022-10-13T09:13:56;95978.84;;;19.11;87.44
40650;BME280;26342;42.826;23.992;2022-10-13T09:16:27;95978.16;;;19.19;84.47
40650;BME280;26342;42.826;23.992;2022-10-13T09:18:53;95978.69;;;19.35;85.38
40650;BME280;26342;42.826;23.992;2022-10-13T09:21:22;95980.88;;;19.66;79.74
40650;BME280;26342;42.826;23.992;2022-10-13T09:23:50;95984.75;;;19.92;81.96
40650;BME280;26342;42.826;23.992;2022-10-13T09:26:22;95980.97;;;20.29;84.93
40650;BME280;26342;42.826;23.992;2022-10-13T09:28:49;95968.16;;;20.21;72.18
40650;BME280;26342;42.826;23.992;2022-10-13T09:31:26;95966.06;;;20.18;73.73
40650;BME280;26342;42.826;23.992;2022-10-13T09:34:12;95954.50;;;20.26;74.76
40650;BME280;26342;42.826;23.992;2022-10-13T09:36:41;95961.72;;;20.45;72.09
40650;BME280;26342;42.826;23.992;2022-10-13T09:39:18;95958.78;;;20.55;71.05
40650;BME280;26342;42.826;23.992;2022-10-13T09:41:44;95951.91;;;20.71;73.23
40650;BME280;26342;42.826;23.992;2022-10-13T09:46:58;95955.16;;;20.82;64.01
40650;BME280;26342;42.826;23.992;2022-10-13T09:57:03;95954.91;;;21.14;61.92
40650;BME280;26342;42.826;23.992;2022-10-13T09:59:35;95948.22;;;20.89;60.45
40650;BME280;26342;42.826;23.992;2022-10-13T10:04:39;95945.00;;;21.10;63.22
40650;BME280;26342;42.826;23.992;2022-10-13T10:07:28;95942.19;;;21.24;65.86
40650;BME280;26342;42.826;23.992;2022-10-13T10:09:57;95926.66;;;21.38;62.38
40650;BME280;26342;42.826;23.992;2022-10-13T10:12:29;95930.38;;;21.42;61.48
40650;BME280;26342;42.826;23.992;2022-10-13T10:14:55;95920.84;;;21.62;63.90
40650;BME280;26342;42.826;23.992;2022-10-13T10:17:43;95908.63;;;21.73;59.61
40650;BME280;26342;42.826;23.992;2022-10-13T10:25:56;95919.13;;;21.66;53.40
40650;BME280;26342;42.826;23.992;2022-10-13T10:28:41;95909.53;;;21.68;55.56
40650;BME280;26342;42.826;23.992;2022-10-13T10:37:10;95902.66;;;22.11;55.11
40650;BME280;26342;42.826;23.992;2022-10-13T10:39:31;95898.34;;;22.10;54.58
40650;BME280;26342;42.826;23.992;2022-10-13T10:45:02;95880.88;;;22.02;51.65
40650;BME280;26342;42.826;23.992;2022-10-13T10:47:38;95884.53;;;21.89;54.32
40650;BME280;26342;42.826;23.992;2022-10-13T10:50:07;95885.13;;;21.77;52.24
40650;BME280;26342;42.826;23.992;2022-10-13T10:52:41;95883.09;;;21.43;53.19
40650;BME280;26342;42.826;23.992;2022-10-13T11:00:26;95878.25;;;21.09;55.69
40650;BME280;26342;42.826;23.992;2022-10-13T11:05:20;95872.34;;;21.07;55.69
40650;BME280;26342;42.826;23.992;2022-10-13T11:10:16;95878.97;;;20.92;53.57
40650;BME280;26342;42.826;23.992;2022-10-13T11:17:53;95863.81;;;20.69;54.90
40650;BME280;26342;42.826;23.992;2022-10-13T11:25:41;95858.22;;;20.65;55.73
40650;BME280;26342;42.826;23.992;2022-10-13T11:30:50;95839.88;;;20.62;56.77
40650;BME280;26342;42.826;23.992;2022-10-13T11:35:56;95829.00;;;20.40;58.13
40650;BME280;26342;42.826;23.992;2022-10-13T11:38:30;95824.91;;;20.28;60.26
40650;BME280;26342;42.826;23.992;2022-10-13T11:41:19;95832.66;;;20.21;60.71
40650;BME280;26342;42.826;23.992;2022-10-13T11:49:09;95840.50;;;19.87;62.68
40650;BME280;26342;42.826;23.992;2022-10-13T11:54:53;95831.97;;;19.79;62.28
40650;BME280;26342;42.826;23.992;2022-10-13T11:57:22;95828.56;;;19.74;61.46
40650;BME280;26342;42.826;23.992;2022-10-13T11:59:51;95821.69;;;19.68;63.29
40650;BME280;26342;42.826;23.992;2022-10-13T12:02:20;95827.69;;;19.65;64.33
40650;BME280;26342;42.826;23.992;2022-10-13T12:05:25;95820.56;;;19.69;65.91
40650;BME280;26342;42.826;23.992;2022-10-13T12:07:52;95819.06;;;19.76;65.32
40650;BME280;26342;42.826;23.992;2022-10-13T12:10:32;95818.75;;;19.78;63.64
40650;BME280;26342;42.826;23.992;2022-10-13T12:12:59;95818.44;;;19.79;64.91
40650;BME280;26342;42.826;23.992;2022-10-13T12:15:40;95819.38;;;19.75;62.31
40650;BME280;26342;42.826;23.992;2022-10-13T12:18:24;95797.72;;;19.61;63.10
40650;BME280;26342;42.826;23.992;2022-10-13T12:21:03;95815.47;;;19.67;62.95
40650;BME280;26342;42.826;23.992;2022-10-13T12:23:33;95815.34;;;19.59;63.96
40650;BME280;26342;42.826;23.992;2022-10-13T12:25:58;95816.69;;;19.61;63.03
40650;BME280;26342;42.826;23.992;2022-10-13T12:28:27;95817.84;;;19.55;61.53
40650;BME280;26342;42.826;23.992;2022-10-13T12:30:57;95826.69;;;19.61;69.18
40650;BME280;26342;42.826;23.992;2022-10-13T12:33:32;95820.38;;;19.65;64.46
40650;BME280;26342;42.826;23.992;2022-10-13T12:36:13;95814.06;;;19.70;62.84
40650;BME280;26342;42.826;23.992;2022-10-13T12:38:54;95814.75;;;19.75;63.68
40650;BME280;26342;42.826;23.992;2022-10-13T12:41:33;95814.53;;;19.72;61.41
40650;BME280;26342;42.826;23.992;2022-10-13T12:43:59;95817.47;;;19.75;63.52
40650;BME280;26342;42.826;23.992;2022-10-13T12:51:36;95818.53;;;19.74;63.57
40650;BME280;26342;42.826;23.992;2022-10-13T12:54:18;95809.63;;;19.74;64.86
40650;BME280;26342;42.826;23.992;2022-10-13T12:56:44;95802.72;;;19.68;63.74
40650;BME280;26342;42.826;23.992;2022-10-13T12:59:19;95812.06;;;19.62;65.32
40650;BME280;26342;42.826;23.992;2022-10-13T13:01:52;95803.13;;;19.61;63.40
40650;BME280;26342;42.826;23.992;2022-10-13T13:04:27;95797.78;;;19.56;63.04
40650;BME280;26342;42.826;23.992;2022-10-13T13:07:02;95796.09;;;19.46;63.71
40650;BME280;26342;42.826;23.992;2022-10-13T13:09:32;95786.69;;;19.44;63.28
40650;BME280;26342;42.826;23.992;2022-10-13T13:14:41;95784.09;;;19.39;64.85
40650;BME280;26342;42.826;23.992;2022-10-13T13:17:11;95782.34;;;19.43;64.56
40650;BME280;26342;42.826;23.992;2022-10-13T13:19:37;95770.66;;;19.34;65.31
40650;BME280;26342;42.826;23.992;2022-10-13T13:22:04;95785.38;;;19.41;65.36
40650;BME280;26342;42.826;23.992;2022-10-13T13:24:30;95797.63;;;19.39;65.99
40650;BME280;26342;42.826;23.992;2022-10-13T13:26:56;95798.22;;;19.36;67.72
40650;BME280;26342;42.826;23.992;2022-10-13T13:29:21;95782.59;;;19.33;67.16
40650;BME280;26342;42.826;23.992;2022-10-13T13:31:47;95792.69;;;19.41;67.35
40650;BME280;26342;42.826;23.992;2022-10-13T13:34:12;95789.41;;;19.30;67.77
40650;BME280;26342;42.826;23.992;2022-10-13T13:36:38;95788.50;;;19.21;70.14
40650;BME280;26342;42.826;23.992;2022-10-13T13:39:05;95782.69;;;19.14;69.47
40650;BME280;26342;42.826;23.992;2022-10-13T13:41:30;95788.19;;;19.09;70.13
40650;BME280;26342;42.826;23.992;2022-10-13T13:43:57;95790.31;;;19.12;71.16
40650;BME280;26342;42.826;23.992;2022-10-13T13:46:24;95789.22;;;19.13;70.28
40650;BME280;26342;42.826;23.992;2022-10-13T13:48:51;95782.47;;;19.10;70.47
40650;BME280;26342;42.826;23.992;2022-10-13T13:51:17;95783.97;;;19.03;70.78
40650;BME280;26342;42.826;23.992;2022-10-13T13:53:43;95787.00;;;19.01;71.43
40650;BME280;26342;42.826;23.992;2022-10-13T13:56:12;95777.59;;;18.99;72.41
40650;BME280;26342;42.826;23.992;2022-10-13T13:58:38;95788.09;;;19.00;71.07
40650;BME280;26342;42.826;23.992;2022-10-13T14:01:04;95784.28;;;19.01;71.67
40650;BME280;26342;42.826;23.992;2022-10-13T14:03:29;95790.31;;;18.98;71.89
40650;BME280;26342;42.826;23.992;2022-10-13T14:05:55;95787.19;;;18.91;72.87
40650;BME280;26342;42.826;23.992;2022-10-13T14:08:20;95791.31;;;18.88;72.35
40650;BME280;26342;42.826;23.992;2022-10-13T14:10:45;95790.09;;;18.81;72.54
40650;BME280;26342;42.826;23.992;2022-10-13T14:13:11;95781.75;;;18.77;73.55
40650;BME280;26342;42.826;23.992;2022-10-13T14:15:36;95783.56;;;18.68;73.74
40650;BME280;26342;42.826;23.992;2022-10-13T14:18:02;95787.78;;;18.74;74.54
40650;BME280;26342;42.826;23.992;2022-10-13T14:20:27;95777.41;;;18.62;74.08
40650;BME280;26342;42.826;23.992;2022-10-13T14:22:53;95802.34;;;18.59;76.22
40650;BME280;26342;42.826;23.992;2022-10-13T14:25:18;95800.25;;;18.37;77.16
40650;BME280;26342;42.826;23.992;2022-10-13T14:27:44;95803.13;;;18.27;78.08
40650;BME280;26342;42.826;23.992;2022-10-13T14:30:10;95807.38;;;18.14;78.80
40650;BME280;26342;42.826;23.992;2022-10-13T14:32:36;95804.41;;;17.97;80.43